Time;durP1;ratioP1;P1;durP2;ratioP2;P2;SDS_P1;SDS_P2;PMS_P1;PMS_P2;Temp;Humidity;BMP_temperature;BMP_pressure;BME280_temperature;BME280_humidity;BME280_pressure;Samples;Min_cycle;Max_cycle;Signal;HPM_P1;HPM_P2
2023/02/15 00:02:04;;;;;;;14.97;10.90;;;17.70;52.50;;;;;;4999751;28;20524;-81
2023/02/15 00:17:49;;;;;;;20.73;11.23;;;17.60;52.50;;;;;;5116896;27;20585;-81
2023/02/15 00:20:18;;;;;;;14.53;11.00;;;17.50;52.50;;;;;;5121578;28;20458;-80
2023/02/15 00:22:46;;;;;;;15.93;10.47;;;17.50;52.60;;;;;;5108989;28;20496;-80
2023/02/15 00:25:14;;;;;;;16.43;11.40;;;17.50;52.60;;;;;;5111063;28;20540;-79
2023/02/15 00:27:42;;;;;;;14.50;10.57;;;17.40;52.60;;;;;;5111406;28;20472;-80
2023/02/15 00:30:10;;;;;;;14.30;10.70;;;17.40;53.20;;;;;;5107612;28;20536;-80
2023/02/15 00:32:39;;;;;;;16.00;11.13;;;17.40;52.60;;;;;;5111406;28;20496;-80
2023/02/15 00:35:09;;;;;;;15.30;10.80;;;17.40;52.60;;;;;;5104839;28;20454;-81
2023/02/15 00:37:37;;;;;;;16.57;11.63;;;17.40;52.70;;;;;;5106316;28;20519;-79
2023/02/15 00:40:06;;;;;;;16.57;11.37;;;17.40;52.70;;;;;;5105108;28;20440;-80
2023/02/15 00:42:34;;;;;;;13.30;10.37;;;17.30;52.70;;;;;;5108521;28;20471;-79
2023/02/15 00:45:02;;;;;;;15.40;11.47;;;17.30;52.70;;;;;;5112376;28;20452;-80
2023/02/15 00:47:30;;;;;;;17.87;11.17;;;17.30;52.60;;;;;;5103737;28;20472;-81
2023/02/15 00:49:58;;;;;;;13.70;10.70;;;17.30;52.70;;;;;;5112207;28;20452;-81
2023/02/15 00:52:27;;;;;;;15.60;11.23;;;17.30;52.70;;;;;;5108300;28;20476;-81
2023/02/15 00:54:56;;;;;;;18.33;11.27;;;17.30;52.80;;;;;;5101577;28;20520;-80
2023/02/15 00:57:23;;;;;;;14.23;10.70;;;17.30;52.90;;;;;;5103868;28;20472;-81
2023/02/15 00:59:52;;;;;;;14.00;10.60;;;17.20;52.80;;;;;;5112245;28;20455;-80
2023/02/15 01:02:19;;;;;;;15.57;11.23;;;17.20;52.80;;;;;;5113304;28;20464;-81
2023/02/15 01:04:47;;;;;;;14.77;10.97;;;17.20;52.90;;;;;;5107455;28;20495;-78
2023/02/15 01:07:15;;;;;;;16.30;10.73;;;17.20;52.80;;;;;;5105059;28;20470;-78
2023/02/15 01:09:44;;;;;;;15.20;10.90;;;17.10;52.70;;;;;;5111861;28;20456;-79
2023/02/15 01:12:13;;;;;;;20.70;10.73;;;17.10;52.80;;;;;;5109671;28;20478;-79
2023/02/15 01:14:40;;;;;;;14.20;11.13;;;17.10;52.80;;;;;;5103740;28;20448;-78
2023/02/15 01:17:08;;;;;;;15.20;10.53;;;17.10;52.90;;;;;;5100986;28;20455;-79
2023/02/15 01:19:36;;;;;;;14.50;10.73;;;17.10;52.90;;;;;;5089727;28;20452;-78
2023/02/15 01:22:04;;;;;;;19.50;14.80;;;17.10;52.80;;;;;;5090575;28;20465;-79
2023/02/15 01:24:33;;;;;;;32.87;17.80;;;17.00;52.80;;;;;;5093997;28;20456;-79
2023/02/15 01:27:02;;;;;;;23.73;16.00;;;17.10;53.00;;;;;;5093302;28;21002;-79
2023/02/15 01:29:30;;;;;;;23.13;15.53;;;17.00;52.90;;;;;;5086141;28;20860;-78
2023/02/15 01:31:58;;;;;;;20.90;14.13;;;17.00;52.90;;;;;;5087874;28;20511;-78
2023/02/15 01:34:26;;;;;;;22.77;15.47;;;17.00;53.00;;;;;;5087363;28;20453;-78
2023/02/15 01:36:54;;;;;;;21.23;15.20;;;17.00;53.00;;;;;;5080393;28;20474;-78
2023/02/15 01:39:22;;;;;;;20.80;14.20;;;17.00;52.90;;;;;;5085879;28;20450;-78
2023/02/15 01:41:50;;;;;;;22.13;14.97;;;17.00;53.00;;;;;;5088131;28;20465;-79
2023/02/15 01:44:51;;;;;;;21.83;14.60;;;17.00;52.90;;;;;;5092668;28;20540;-78
2023/02/15 01:47:22;;;;;;;21.50;14.00;;;16.90;52.80;;;;;;5094608;28;20466;-79
2023/02/15 01:49:50;;;;;;;19.50;14.30;;;16.90;52.90;;;;;;5096039;28;20467;-78
2023/02/15 01:52:18;;;;;;;18.40;13.63;;;16.90;52.90;;;;;;5092859;28;20500;-78
2023/02/15 01:54:46;;;;;;;21.60;13.40;;;16.90;53.00;;;;;;5089247;28;20467;-77
2023/02/15 01:57:17;;;;;;;21.23;14.07;;;16.90;53.00;;;;;;5091742;28;20468;-79
2023/02/15 01:59:46;;;;;;;20.47;12.57;;;16.90;53.00;;;;;;5086837;28;20448;-78
2023/02/15 02:02:16;;;;;;;17.17;12.23;;;16.80;52.90;;;;;;5093289;28;20674;-78
2023/02/15 02:04:46;;;;;;;15.90;11.33;;;16.80;52.80;;;;;;5085424;28;20461;-80
2023/02/15 02:07:14;;;;;;;21.60;12.60;;;16.80;52.80;;;;;;5090358;28;20469;-77
2023/02/15 02:09:43;;;;;;;16.27;12.50;;;16.80;52.80;;;;;;5082996;28;20449;-77
2023/02/15 02:12:10;;;;;;;17.23;12.40;;;16.80;53.50;;;;;;5092994;28;20469;-77
2023/02/15 02:14:39;;;;;;;15.93;11.80;;;16.80;53.00;;;;;;5084239;28;20457;-77
2023/02/15 02:17:09;;;;;;;18.10;12.30;;;16.70;52.90;;;;;;5088397;28;20456;-77
2023/02/15 02:20:02;;;;;;;16.90;11.90;;;16.70;52.70;;;;;;5092387;28;20456;-77
2023/02/15 02:22:55;;;;;;;16.13;11.73;;;16.70;52.80;;;;;;5088730;28;20472;-77
2023/02/15 02:25:54;;;;;;;14.80;10.70;;;16.70;52.80;;;;;;5087971;28;20451;-77
2023/02/15 02:28:42;;;;;;;15.00;10.83;;;16.60;52.80;;;;;;5033269;28;20496;-78
2023/02/15 02:31:28;;;;;;;17.87;11.73;;;16.60;52.80;;;;;;5080346;28;20812;-77
2023/02/15 02:34:01;;;;;;;18.87;11.70;;;16.60;52.80;;;;;;5084047;28;20468;-78
2023/02/15 02:36:32;;;;;;;15.73;11.30;;;16.60;52.70;;;;;;5085847;28;20445;-78
2023/02/15 02:39:10;;;;;;;18.57;10.73;;;16.60;52.70;;;;;;5084582;28;20462;-77
2023/02/15 02:41:41;;;;;;;14.40;10.90;;;16.50;52.60;;;;;;5083840;28;20475;-76
2023/02/15 02:44:13;;;;;;;14.47;10.50;;;16.50;52.80;;;;;;5087247;28;20457;-77
2023/02/15 02:46:47;;;;;;;15.83;10.63;;;16.40;52.60;;;;;;5086311;28;20460;-76
2023/02/15 02:49:16;;;;;;;12.17;10.07;;;16.40;52.50;;;;;;5086360;28;20453;-78
2023/02/15 02:51:44;;;;;;;14.00;10.23;;;16.40;52.70;;;;;;5092129;28;20440;-77
2023/02/15 02:54:12;;;;;;;13.70;9.80;;;16.40;53.30;;;;;;5080680;28;20450;-78
2023/02/15 02:56:42;;;;;;;14.50;10.37;;;16.40;52.70;;;;;;5081063;28;20472;-78
2023/02/15 02:59:11;;;;;;;12.80;9.53;;;16.30;52.60;;;;;;5080493;28;20457;-78
2023/02/15 03:01:41;;;;;;;13.30;10.20;;;16.40;52.50;;;;;;5084492;28;20452;-78
2023/02/15 03:04:11;;;;;;;16.57;10.93;;;16.30;52.50;;;;;;5087867;28;20450;-78
2023/02/15 03:06:42;;;;;;;13.00;9.37;;;16.30;52.60;;;;;;5082068;28;20523;-78
2023/02/15 03:09:14;;;;;;;13.20;9.80;;;16.30;52.50;;;;;;5082008;28;20456;-78
2023/02/15 03:11:45;;;;;;;13.80;9.43;;;16.30;52.60;;;;;;5082716;28;20503;-77
2023/02/15 03:14:13;;;;;;;16.10;10.10;;;16.20;52.50;;;;;;5089096;28;20450;-76
2023/02/15 03:16:41;;;;;;;12.83;9.53;;;16.20;52.50;;;;;;5089087;28;20461;-77
2023/02/15 03:19:11;;;;;;;14.03;9.60;;;16.20;52.40;;;;;;5089578;28;20452;-78
2023/02/15 03:21:43;;;;;;;12.70;9.27;;;16.20;52.50;;;;;;5083398;28;20506;-78
2023/02/15 03:24:13;;;;;;;12.83;10.13;;;16.10;52.60;;;;;;5084493;28;20457;-78
2023/02/15 03:26:43;;;;;;;11.57;9.30;;;16.10;52.40;;;;;;5083685;28;20477;-78
2023/02/15 03:29:12;;;;;;;14.23;9.30;;;16.10;52.50;;;;;;5085945;28;20452;-78
2023/02/15 03:31:41;;;;;;;13.23;8.70;;;16.10;52.40;;;;;;5079310;28;20452;-77
2023/02/15 03:34:10;;;;;;;15.10;10.20;;;16.10;52.40;;;;;;5087343;28;20449;-78
2023/02/15 03:36:44;;;;;;;11.10;8.77;;;16.00;52.40;;;;;;5085286;28;20453;-78
2023/02/15 03:39:17;;;;;;;12.90;8.60;;;16.00;53.00;;;;;;5084724;28;20475;-78
2023/02/15 03:41:49;;;;;;;12.33;8.63;;;16.00;52.40;;;;;;5084782;28;20480;-77
2023/02/15 03:44:20;;;;;;;10.87;8.67;;;16.00;52.20;;;;;;5089038;28;20452;-77
2023/02/15 03:46:49;;;;;;;11.70;9.00;;;16.00;52.30;;;;;;5073689;28;20449;-77
2023/02/15 03:49:22;;;;;;;13.53;9.03;;;16.00;52.40;;;;;;5083858;28;20515;-78
2023/02/15 03:51:51;;;;;;;11.47;8.10;;;15.90;52.30;;;;;;5089512;28;20449;-78
2023/02/15 04:02:37;;;;;;;12.80;8.23;;;15.80;52.30;;;;;;5091224;28;20469;-78
2023/02/15 04:05:05;;;;;;;12.83;9.27;;;15.80;52.40;;;;;;5083855;28;20532;-77
2023/02/15 04:07:35;;;;;;;14.50;8.77;;;15.80;52.40;;;;;;5082290;28;20474;-79
2023/02/15 04:12:48;;;;;;;11.07;7.90;;;15.80;52.30;;;;;;5086479;28;20464;-78
2023/02/15 04:18:03;;;;;;;12.30;8.30;;;15.80;52.50;;;;;;5081215;28;20440;-77
2023/02/15 04:26:04;;;;;;;12.67;8.47;;;15.70;52.50;;;;;;5082996;28;20476;-78
2023/02/15 04:28:31;;;;;;;11.10;8.00;;;15.60;52.30;;;;;;5086189;28;20477;-78
2023/02/15 04:30:59;;;;;;;10.60;7.70;;;15.60;52.30;;;;;;5087668;28;20465;-78
2023/02/15 04:33:27;;;;;;;8.70;7.40;;;15.60;52.30;;;;;;5083208;28;20469;-77
2023/02/15 04:35:56;;;;;;;9.63;7.47;;;15.60;52.40;;;;;;5099736;28;20454;-78
2023/02/15 04:38:25;;;;;;;10.37;7.53;;;15.60;52.40;;;;;;5089095;28;20454;-78
2023/02/15 04:40:53;;;;;;;10.23;7.33;;;15.60;52.40;;;;;;5094142;28;20479;-79
2023/02/15 04:43:21;;;;;;;11.07;7.73;;;15.60;52.40;;;;;;5092736;28;20473;-78
2023/02/15 04:45:50;;;;;;;11.17;7.90;;;15.50;52.40;;;;;;5087998;28;20456;-78
2023/02/15 04:48:18;;;;;;;10.40;7.47;;;15.50;52.40;;;;;;5093251;28;20477;-79
2023/02/15 04:50:46;;;;;;;10.37;8.13;;;15.50;52.40;;;;;;5090002;28;20448;-78
2023/02/15 04:53:16;;;;;;;7.77;7.00;;;15.50;52.20;;;;;;5097962;28;20473;-79
2023/02/15 04:55:45;;;;;;;10.20;7.70;;;15.50;52.30;;;;;;5094942;28;20471;-78
2023/02/15 04:58:13;;;;;;;9.67;7.13;;;15.50;52.30;;;;;;5096040;28;20932;-79
2023/02/15 05:00:41;;;;;;;11.47;7.97;;;15.50;52.40;;;;;;5090065;28;20449;-78
2023/02/15 05:03:10;;;;;;;10.63;7.50;;;15.40;52.30;;;;;;5098778;28;20574;-79
2023/02/15 05:05:38;;;;;;;11.03;7.43;;;15.50;52.40;;;;;;5094533;28;20456;-77
2023/02/15 05:08:06;;;;;;;11.93;6.80;;;15.40;52.30;;;;;;5094124;28;20476;-78
2023/02/15 05:10:33;;;;;;;11.63;7.80;;;15.40;52.40;;;;;;5090059;28;20454;-78
2023/02/15 05:13:03;;;;;;;10.67;7.67;;;15.40;52.40;;;;;;5093729;28;20465;-79
2023/02/15 05:15:31;;;;;;;9.60;7.27;;;15.40;52.30;;;;;;5097641;28;20455;-78
2023/02/15 05:17:59;;;;;;;9.73;7.33;;;15.40;52.40;;;;;;5096426;28;20457;-78
2023/02/15 05:20:27;;;;;;;12.77;7.60;;;15.40;52.30;;;;;;5100021;28;20453;-79
2023/02/15 05:22:55;;;;;;;9.03;6.80;;;15.30;52.30;;;;;;5092565;28;20463;-78
2023/02/15 05:28:22;;;;;;;11.27;7.10;;;15.30;52.40;;;;;;5092532;28;20460;-78
2023/02/15 05:30:50;;;;;;;10.30;6.83;;;15.30;52.50;;;;;;5090062;28;20464;-78
2023/02/15 05:33:19;;;;;;;9.00;6.80;;;15.30;52.30;;;;;;5089642;28;20557;-79
2023/02/15 05:35:47;;;;;;;11.40;6.50;;;15.20;52.20;;;;;;5086026;28;20460;-78
2023/02/15 05:38:15;;;;;;;9.97;7.00;;;15.20;52.30;;;;;;5093633;28;20451;-78
2023/02/15 05:40:43;;;;;;;8.43;6.70;;;15.20;52.40;;;;;;5093816;28;20473;-77
2023/02/15 05:43:12;;;;;;;8.87;6.60;;;15.20;52.20;;;;;;5092900;28;20468;-78
2023/02/15 05:45:40;;;;;;;8.30;6.53;;;15.20;52.20;;;;;;5089551;28;20967;-79
2023/02/15 05:48:09;;;;;;;9.50;6.83;;;15.20;52.40;;;;;;5094286;28;20468;-79
2023/02/15 05:50:36;;;;;;;9.37;6.67;;;15.20;52.20;;;;;;5092757;28;20457;-78
2023/02/15 05:53:05;;;;;;;10.17;7.10;;;15.10;52.30;;;;;;5092740;28;20472;-78
2023/02/15 05:55:33;;;;;;;9.43;6.37;;;15.10;52.30;;;;;;5095196;28;20453;-78
2023/02/15 05:58:01;;;;;;;10.40;6.73;;;15.10;52.30;;;;;;5084988;28;20456;-77
2023/02/15 06:00:30;;;;;;;8.67;6.40;;;15.10;52.30;;;;;;5093141;28;20461;-78
2023/02/15 06:02:58;;;;;;;9.53;6.67;;;15.10;52.30;;;;;;5082132;28;20469;-78
2023/02/15 06:05:26;;;;;;;10.90;6.63;;;15.10;52.30;;;;;;5094479;28;20450;-79
2023/02/15 06:07:54;;;;;;;7.60;5.83;;;15.10;52.20;;;;;;5095490;28;20459;-79
2023/02/15 06:10:21;;;;;;;8.77;6.70;;;15.10;52.30;;;;;;5096504;28;20468;-79
2023/02/15 06:12:49;;;;;;;11.30;6.83;;;15.00;52.20;;;;;;5091258;28;20480;-78
2023/02/15 06:15:18;;;;;;;7.97;6.37;;;15.00;52.30;;;;;;5095719;28;20460;-78
2023/02/15 06:17:47;;;;;;;9.00;6.40;;;15.00;52.20;;;;;;5087889;28;20535;-78
2023/02/15 06:20:15;;;;;;;9.97;7.07;;;15.00;52.30;;;;;;5092508;28;20459;-78
2023/02/15 06:22:43;;;;;;;8.30;6.30;;;15.00;52.30;;;;;;5092489;28;20475;-78
2023/02/15 06:25:11;;;;;;;11.93;7.27;;;15.00;52.20;;;;;;5082450;28;20445;-78
2023/02/15 06:27:41;;;;;;;12.67;7.03;;;14.90;52.20;;;;;;5092374;28;20476;-78
2023/02/15 06:30:10;;;;;;;11.67;7.00;;;14.90;52.20;;;;;;5086994;28;20469;-78
2023/02/15 06:32:38;;;;;;;10.40;7.20;;;14.90;52.20;;;;;;5089943;28;20472;-77
2023/02/15 06:35:08;;;;;;;10.27;6.30;;;14.90;52.20;;;;;;5089959;28;20459;-78
2023/02/15 06:37:36;;;;;;;8.67;6.63;;;14.90;52.20;;;;;;5084993;28;20449;-77
2023/02/15 06:40:04;;;;;;;9.17;6.97;;;14.90;52.10;;;;;;5087054;28;20465;-78
2023/02/15 06:42:32;;;;;;;11.13;6.60;;;14.90;52.20;;;;;;5090417;28;20492;-77
2023/02/15 06:45:01;;;;;;;12.63;6.73;;;14.90;52.30;;;;;;5090233;28;20460;-78
2023/02/15 06:47:29;;;;;;;9.93;6.77;;;14.90;52.20;;;;;;5089482;28;20449;-78
2023/02/15 06:49:57;;;;;;;9.43;6.33;;;14.90;52.50;;;;;;5088435;28;20475;-78
2023/02/15 06:52:26;;;;;;;9.20;6.20;;;14.80;52.30;;;;;;5083612;28;20536;-78
2023/02/15 06:54:54;;;;;;;8.50;5.80;;;14.80;52.30;;;;;;5093657;28;20449;-78
2023/02/15 06:57:21;;;;;;;7.63;6.40;;;14.80;52.30;;;;;;5087885;28;20469;-78
2023/02/15 06:59:50;;;;;;;9.33;6.27;;;14.80;52.40;;;;;;5085935;28;20446;-78
2023/02/15 07:02:18;;;;;;;11.10;7.30;;;14.80;52.40;;;;;;5088489;28;20473;-79
2023/02/15 07:04:46;;;;;;;9.83;6.63;;;14.80;52.30;;;;;;5093197;28;20448;-79
2023/02/15 07:07:14;;;;;;;9.20;6.70;;;14.80;52.30;;;;;;5090333;28;20491;-78
2023/02/15 07:09:44;;;;;;;8.17;6.57;;;14.80;52.30;;;;;;5087067;28;20465;-79
2023/02/15 07:14:54;;;;;;;9.23;6.80;;;14.80;52.30;;;;;;5074947;28;20457;-79
2023/02/15 07:17:22;;;;;;;9.50;6.33;;;14.80;52.30;;;;;;5090271;28;20457;-79
2023/02/15 07:20:10;;;;;;;9.90;6.47;;;14.80;52.20;;;;;;5085632;28;20464;-78
2023/02/15 07:22:38;;;;;;;8.87;6.30;;;14.80;52.30;;;;;;5095086;28;20468;-79
2023/02/15 07:25:09;;;;;;;9.90;6.97;;;14.80;52.30;;;;;;5091570;28;20484;-79
2023/02/15 07:27:37;;;;;;;8.87;6.90;;;14.80;52.10;;;;;;5090059;28;20468;-78
2023/02/15 07:30:07;;;;;;;9.60;6.50;;;14.80;52.20;;;;;;5087326;28;20473;-79
2023/02/15 07:32:35;;;;;;;8.60;6.20;;;14.80;52.20;;;;;;5093884;28;20472;-79
2023/02/15 07:35:02;;;;;;;7.53;6.10;;;14.80;52.10;;;;;;5085955;28;20445;-77
2023/02/15 07:37:30;;;;;;;8.93;6.53;;;14.80;52.20;;;;;;5094903;28;20445;-79
2023/02/15 07:39:58;;;;;;;8.60;6.00;;;14.80;52.10;;;;;;5087966;28;20472;-79
2023/02/15 07:42:27;;;;;;;10.50;7.23;;;14.90;51.90;;;;;;5099456;28;20468;-80
2023/02/15 07:44:55;;;;;;;10.30;6.80;;;14.90;52.10;;;;;;5090594;28;20479;-79
2023/02/15 07:47:23;;;;;;;8.60;6.13;;;14.90;52.10;;;;;;5090033;28;20456;-78
2023/02/15 07:49:51;;;;;;;10.07;6.63;;;14.90;52.20;;;;;;5095632;28;20498;-80
2023/02/15 07:52:19;;;;;;;8.60;6.57;;;14.90;52.10;;;;;;5091024;28;20483;-79
2023/02/15 07:54:47;;;;;;;8.73;6.33;;;14.90;52.30;;;;;;5095139;28;20449;-78
2023/02/15 07:57:15;;;;;;;8.50;6.50;;;14.90;52.10;;;;;;5088137;28;20469;-80
2023/02/15 07:59:45;;;;;;;9.70;6.73;;;14.90;52.30;;;;;;5089039;28;20448;-79
2023/02/15 08:02:13;;;;;;;12.03;7.40;;;14.90;52.20;;;;;;5089131;28;20469;-80
2023/02/15 08:04:44;;;;;;;8.93;6.37;;;14.90;52.20;;;;;;5091315;28;20451;-80
2023/02/15 08:07:12;;;;;;;9.20;6.77;;;15.00;52.40;;;;;;5085025;28;20450;-79
2023/02/15 08:09:40;;;;;;;11.10;6.87;;;15.00;52.40;;;;;;5089819;28;20477;-79
2023/02/15 08:12:07;;;;;;;9.80;6.30;;;15.00;52.50;;;;;;5091521;28;20472;-79
2023/02/15 08:14:36;;;;;;;9.13;6.80;;;15.10;52.50;;;;;;5087059;28;20456;-80
2023/02/15 08:17:05;;;;;;;9.60;6.33;;;15.10;52.50;;;;;;5094224;28;20452;-81
2023/02/15 08:19:34;;;;;;;9.37;6.67;;;15.20;52.80;;;;;;5092038;28;20449;-80
2023/02/15 08:22:03;;;;;;;12.07;7.53;;;15.20;52.90;;;;;;5087614;28;20479;-80
2023/02/15 08:24:33;;;;;;;11.47;7.73;;;15.30;53.00;;;;;;5084045;28;20448;-78
2023/02/15 08:27:03;;;;;;;14.00;8.40;;;15.30;52.80;;;;;;5088908;28;20469;-79
2023/02/15 08:29:33;;;;;;;12.50;7.70;;;15.40;52.90;;;;;;5093114;28;20453;-77
2023/02/15 08:32:02;;;;;;;12.00;8.13;;;15.40;53.00;;;;;;5093571;28;21061;-79
2023/02/15 08:34:33;;;;;;;11.43;7.17;;;15.50;53.40;;;;;;5087204;28;20453;-79
2023/02/15 08:37:01;;;;;;;11.40;7.50;;;15.60;53.30;;;;;;5097454;28;20436;-79
2023/02/15 08:39:29;;;;;;;17.17;7.80;;;15.60;53.50;;;;;;5096877;28;20456;-78
2023/02/15 08:41:57;;;;;;;11.70;7.60;;;15.70;53.70;;;;;;5095700;28;20464;-79
2023/02/15 08:44:26;;;;;;;14.00;8.63;;;15.80;54.00;;;;;;5094754;28;20483;-79
2023/02/15 08:46:54;;;;;;;12.33;7.40;;;15.90;54.00;;;;;;5093492;28;20437;-80
2023/02/15 08:49:22;;;;;;;10.33;7.53;;;15.90;54.10;;;;;;5095333;28;20504;-80
2023/02/15 08:51:51;;;;;;;14.17;8.33;;;16.00;54.50;;;;;;5095393;28;20469;-80
2023/02/15 08:54:21;;;;;;;10.03;7.40;;;16.10;54.70;;;;;;5097370;28;20441;-80
2023/02/15 08:56:50;;;;;;;9.30;7.20;;;16.30;55.10;;;;;;5093089;28;20472;-81
2023/02/15 08:59:20;;;;;;;11.43;7.47;;;16.30;55.30;;;;;;5096474;28;20501;-80
2023/02/15 09:01:48;;;;;;;11.20;7.93;;;16.50;55.60;;;;;;5095428;28;20436;-78
2023/02/15 09:04:17;;;;;;;10.67;7.30;;;16.60;56.00;;;;;;5087620;28;20496;-79
2023/02/15 09:06:45;;;;;;;12.80;8.83;;;16.80;56.40;;;;;;5087869;28;20523;-79
2023/02/15 09:09:17;;;;;;;13.37;7.73;;;16.90;56.40;;;;;;5092971;28;20490;-80
2023/02/15 09:11:46;;;;;;;12.50;8.33;;;17.00;56.60;;;;;;5088624;28;20472;-77
2023/02/15 09:14:16;;;;;;;9.63;8.10;;;17.20;57.10;;;;;;5094332;28;20452;-79
2023/02/15 09:16:46;;;;;;;12.40;7.83;;;17.30;57.20;;;;;;5094861;28;20936;-79
2023/02/15 09:19:14;;;;;;;12.40;8.07;;;17.50;57.60;;;;;;5095391;28;20531;-78
2023/02/15 09:21:42;;;;;;;14.23;8.23;;;17.60;57.80;;;;;;5082876;28;20433;-79
2023/02/15 09:24:10;;;;;;;9.70;7.20;;;17.80;58.10;;;;;;5093041;28;20433;-79
2023/02/15 09:26:41;;;;;;;11.93;8.20;;;18.00;58.20;;;;;;5094027;28;20456;-77
2023/02/15 09:29:10;;;;;;;11.40;8.37;;;18.20;58.40;;;;;;5094571;28;20445;-79
2023/02/15 09:31:40;;;;;;;9.80;7.70;;;18.30;58.60;;;;;;5093471;28;20468;-79
2023/02/15 09:34:08;;;;;;;14.03;8.30;;;18.50;59.00;;;;;;5093595;28;20445;-78
2023/02/15 09:36:37;;;;;;;11.70;8.00;;;18.60;59.00;;;;;;5094002;28;20433;-79
2023/02/15 09:39:07;;;;;;;12.43;7.47;;;18.80;59.10;;;;;;5091206;28;20463;-78
2023/02/15 09:42:04;;;;;;;8.83;7.80;;;19.00;59.20;;;;;;5095749;28;20493;-78
2023/02/15 09:44:39;;;;;;;12.37;7.90;;;19.20;59.40;;;;;;5084583;28;20463;-79
2023/02/15 09:47:18;;;;;;;11.33;8.07;;;19.40;59.50;;;;;;5087668;28;20447;-77
2023/02/15 09:49:50;;;;;;;10.27;7.50;;;19.60;59.50;;;;;;5077655;28;20448;-78
2023/02/15 09:52:31;;;;;;;9.80;7.73;;;19.80;59.70;;;;;;5093436;28;20486;-78
2023/02/15 09:55:09;;;;;;;10.00;8.13;;;20.00;59.60;;;;;;5091749;28;20452;-78
2023/02/15 09:57:42;;;;;;;12.07;7.93;;;20.20;59.70;;;;;;5080024;28;20844;-77
2023/02/15 10:00:14;;;;;;;12.90;8.00;;;20.40;59.60;;;;;;5084037;28;20530;-77
2023/02/15 10:03:05;;;;;;;13.00;7.33;;;20.60;59.60;;;;;;5090141;28;20452;-78
2023/02/15 10:05:39;;;;;;;10.70;7.90;;;20.70;59.70;;;;;;5083388;28;20445;-77
2023/02/15 10:08:31;;;;;;;10.73;7.93;;;20.90;59.70;;;;;;5085290;28;20921;-76
2023/02/15 10:11:38;;;;;;;11.47;7.60;;;21.10;59.70;;;;;;5086775;28;20476;-77
2023/02/15 10:13:58;;;;;;;12.73;8.70;;;21.30;59.50;;;;;;5084422;28;20465;-76
2023/02/15 10:16:29;;;;;;;9.43;8.13;;;21.50;59.50;;;;;;5084950;28;20444;-77
2023/02/15 10:18:59;;;;;;;15.17;8.27;;;21.70;59.40;;;;;;5088853;28;20448;-77
2023/02/15 10:21:39;;;;;;;12.67;7.63;;;21.80;59.20;;;;;;5083072;28;20437;-76
2023/02/15 10:24:36;;;;;;;11.97;7.90;;;21.90;59.10;;;;;;5083739;28;20453;-78
2023/02/15 10:27:13;;;;;;;13.43;8.20;;;22.10;59.00;;;;;;5078185;28;20487;-79
2023/02/15 10:29:44;;;;;;;11.60;8.30;;;22.20;59.00;;;;;;5090185;28;20448;-79
2023/02/15 10:32:19;;;;;;;11.53;8.50;;;22.40;59.00;;;;;;5093959;28;20483;-77
2023/02/15 10:34:49;;;;;;;10.27;8.03;;;22.60;58.80;;;;;;5093165;28;20448;-76
2023/02/15 10:37:40;;;;;;;9.30;8.13;;;22.70;58.40;;;;;;5082416;28;20411;-77
2023/02/15 10:40:11;;;;;;;13.53;8.50;;;22.90;58.30;;;;;;5093094;28;20456;-74
2023/02/15 10:42:44;;;;;;;11.43;8.13;;;23.00;58.10;;;;;;5093394;28;20957;-75
2023/02/15 10:45:19;;;;;;;12.73;8.17;;;23.20;57.70;;;;;;5091705;28;20442;-76
2023/02/15 10:48:07;;;;;;;11.43;8.57;;;23.30;57.40;;;;;;5083124;28;20444;-76
2023/02/15 10:50:42;;;;;;;10.53;7.90;;;23.50;57.20;;;;;;5090476;28;20437;-76
2023/02/15 10:53:18;;;;;;;11.40;8.30;;;23.60;56.80;;;;;;5091335;28;20443;-76
2023/02/15 10:55:51;;;;;;;11.40;8.27;;;23.80;57.00;;;;;;5080825;28;20460;-75
2023/02/15 10:58:25;;;;;;;11.10;7.40;;;24.00;56.40;;;;;;5084175;28;20468;-76
2023/02/15 11:01:00;;;;;;;10.13;7.60;;;24.10;56.10;;;;;;5082866;28;20449;-77
2023/02/15 11:03:36;;;;;;;11.60;8.47;;;24.10;56.00;;;;;;5084992;28;20431;-75
2023/02/15 11:06:06;;;;;;;13.20;8.23;;;24.20;55.90;;;;;;5092613;28;20455;-76
2023/02/15 11:08:36;;;;;;;9.47;8.03;;;24.30;55.70;;;;;;5093441;28;20447;-76
2023/02/15 11:11:06;;;;;;;11.27;8.67;;;24.50;55.50;;;;;;5086065;28;21053;-76
2023/02/15 11:13:37;;;;;;;9.57;7.33;;;24.60;55.30;;;;;;5093795;28;20460;-77
2023/02/15 11:16:08;;;;;;;10.37;7.50;;;24.80;55.10;;;;;;5093718;28;20464;-77
2023/02/15 11:18:38;;;;;;;9.40;7.67;;;25.00;55.00;;;;;;5093076;28;20445;-78
2023/02/15 11:21:08;;;;;;;9.83;7.23;;;25.20;54.70;;;;;;5092754;28;20443;-77
2023/02/15 11:23:36;;;;;;;10.87;7.80;;;25.30;54.40;;;;;;5072869;28;20428;-76
2023/02/15 11:26:07;;;;;;;9.47;7.60;;;25.60;54.20;;;;;;5072525;28;21027;-78
2023/02/15 11:28:37;;;;;;;9.33;7.33;;;25.80;53.70;;;;;;5083174;28;20433;-75
2023/02/15 11:31:13;;;;;;;10.33;7.33;;;26.10;53.10;;;;;;5092604;28;20443;-77
2023/02/15 11:33:44;;;;;;;10.40;7.70;;;26.40;52.60;;;;;;5073804;28;20461;-75
2023/02/15 11:36:16;;;;;;;10.23;7.97;;;26.70;51.90;;;;;;5083204;28;20429;-77
2023/02/15 11:38:44;;;;;;;8.10;7.30;;;27.10;51.10;;;;;;5089898;28;20888;-78
2023/02/15 11:41:14;;;;;;;9.33;6.90;;;27.30;50.40;;;;;;5092765;28;20465;-78
2023/02/15 11:43:44;;;;;;;10.07;7.73;;;27.40;49.90;;;;;;5072481;28;20436;-79
2023/02/15 11:46:14;;;;;;;8.27;7.47;;;27.50;49.50;;;;;;5072588;28;20443;-76
2023/02/15 11:48:43;;;;;;;7.87;6.77;;;27.70;49.50;;;;;;5072415;28;20401;-78
2023/02/15 11:51:13;;;;;;;8.27;7.40;;;27.80;49.00;;;;;;5072410;28;20732;-78
2023/02/15 11:53:42;;;;;;;9.60;7.70;;;28.00;48.70;;;;;;5087017;28;20464;-78
2023/02/15 11:56:14;;;;;;;9.03;6.97;;;28.10;48.30;;;;;;5087610;28;20440;-78
2023/02/15 11:58:44;;;;;;;11.13;7.13;;;28.30;48.10;;;;;;5081177;28;20420;-77
2023/02/15 12:01:16;;;;;;;9.67;8.27;;;28.50;47.60;;;;;;5087887;28;20452;-78
2023/02/15 12:03:46;;;;;;;10.27;9.27;;;28.60;47.10;;;;;;5081607;28;20431;-78
2023/02/15 12:06:18;;;;;;;14.30;11.40;;;28.90;47.00;;;;;;5080685;28;20463;-76
2023/02/15 12:08:50;;;;;;;13.77;11.17;;;29.30;46.40;;;;;;5089598;28;20415;-79
2023/02/15 12:11:20;;;;;;;11.83;10.17;;;29.50;45.40;;;;;;5088934;28;20447;-78
2023/02/15 12:13:55;;;;;;;13.80;11.27;;;29.50;45.20;;;;;;5092429;28;20435;-76
2023/02/15 12:16:26;;;;;;;13.20;11.43;;;29.50;44.70;;;;;;5092071;28;20426;-76
2023/02/15 12:18:54;;;;;;;12.37;11.07;;;29.50;44.50;;;;;;5080907;28;20445;-77
2023/02/15 12:21:27;;;;;;;11.73;10.20;;;29.50;44.60;;;;;;5089369;28;20437;-77
2023/02/15 12:23:56;;;;;;;13.60;10.90;;;29.70;44.60;;;;;;5091967;28;20463;-78
2023/02/15 12:26:25;;;;;;;12.43;10.93;;;30.10;44.40;;;;;;5082379;28;20470;-76
2023/02/15 12:28:54;;;;;;;10.90;9.80;;;30.60;43.70;;;;;;5074877;28;20408;-77
2023/02/15 12:31:23;;;;;;;12.50;10.73;;;30.90;42.80;;;;;;5089808;28;20437;-78
2023/02/15 12:33:54;;;;;;;12.00;10.80;;;31.00;42.00;;;;;;5092531;28;20999;-78
2023/02/15 12:36:23;;;;;;;10.43;9.43;;;31.10;41.70;;;;;;5092187;28;20468;-78
2023/02/15 12:39:04;;;;;;;10.97;9.87;;;31.20;41.60;;;;;;5092498;28;20449;-78
2023/02/15 12:41:32;;;;;;;10.40;9.30;;;31.40;41.40;;;;;;5091896;28;20973;-79
2023/02/15 12:44:05;;;;;;;12.07;10.10;;;31.80;41.20;;;;;;5091991;28;20472;-75
2023/02/15 12:46:33;;;;;;;11.80;9.60;;;32.10;40.50;;;;;;5084009;28;20436;-78
2023/02/15 12:49:18;;;;;;;10.67;9.67;;;32.40;39.90;;;;;;5091998;28;20421;-78
2023/02/15 12:51:49;;;;;;;10.53;9.23;;;32.70;39.20;;;;;;5086663;28;20511;-78
2023/02/15 12:54:18;;;;;;;9.77;8.90;;;33.10;39.20;;;;;;5092215;28;20468;-78
2023/02/15 12:56:50;;;;;;;8.80;7.90;;;33.20;38.50;;;;;;5091742;28;20464;-78
2023/02/15 12:59:20;;;;;;;9.10;8.30;;;33.30;38.40;;;;;;5091685;28;20456;-76
2023/02/15 13:01:50;;;;;;;9.80;8.73;;;33.40;37.90;;;;;;5091911;28;20472;-78
2023/02/15 13:04:22;;;;;;;9.03;8.23;;;33.20;37.90;;;;;;5092059;28;20455;-79
2023/02/15 13:06:51;;;;;;;34.33;26.03;;;33.00;37.70;;;;;;5085501;28;20428;-80
2023/02/15 13:09:21;;;;;;;41.97;29.53;;;30.20;28.30;;;;;;5090086;28;20434;-81
2023/02/15 13:11:48;;;;;;;48.13;31.97;;;26.90;31.60;;;;;;5092409;28;20465;-78
2023/02/15 13:14:18;;;;;;;48.03;33.77;;;25.50;33.20;;;;;;5079033;28;20415;-78
2023/02/15 13:16:47;;;;;;;46.83;31.43;;;23.80;34.80;;;;;;5087206;28;20416;-81
2023/02/15 13:19:17;;;;;;;50.13;32.17;;;23.00;34.70;;;;;;5090278;28;20432;-80
2023/02/15 13:21:48;;;;;;;48.00;32.10;;;21.80;36.50;;;;;;5090049;28;20437;-80
2023/02/15 13:24:19;;;;;;;50.83;33.10;;;20.90;37.80;;;;;;5093564;28;20532;-82
2023/02/15 13:26:47;;;;;;;48.17;32.93;;;20.70;39.30;;;;;;5092357;28;20457;-81
2023/02/15 13:29:18;;;;;;;52.63;32.70;;;19.60;40.30;;;;;;5093189;28;20768;-83
2023/02/15 13:31:46;;;;;;;54.87;33.10;;;19.40;41.30;;;;;;5092343;28;20436;-78